Time;durP1;ratioP1;P1;durP2;ratioP2;P2;SDS_P1;SDS_P2;PMS_P1;PMS_P2;Temp;Humidity;BMP_temperature;BMP_pressure;BME280_temperature;BME280_humidity;BME280_pressure;Samples;Min_cycle;Max_cycle;Signal;HPM_P1;HPM_P2
2021/12/29 00:00:40;;;;;;;119.72;13.95;;;6.80;99.90;;;;;;5037815;28;20148;-86
2021/12/29 00:03:06;;;;;;;98.28;13.73;;;6.80;99.90;;;;;;5036508;28;20132;-86
2021/12/29 00:05:32;;;;;;;123.72;14.18;;;6.70;99.90;;;;;;5037358;28;20128;-86
2021/12/29 00:07:58;;;;;;;140.90;16.08;;;6.90;99.90;;;;;;5038269;28;20498;-79
2021/12/29 00:10:24;;;;;;;147.82;17.15;;;6.80;99.90;;;;;;5036843;28;20045;-80
2021/12/29 00:12:52;;;;;;;170.20;17.83;;;6.80;99.90;;;;;;5036580;28;20046;-80
2021/12/29 00:15:20;;;;;;;153.05;16.50;;;6.80;99.90;;;;;;5036992;28;20095;-79
2021/12/29 00:17:46;;;;;;;178.57;18.15;;;6.80;99.90;;;;;;5036202;28;20084;-79
2021/12/29 00:20:14;;;;;;;190.65;18.10;;;7.10;99.90;;;;;;5037586;28;20045;-79
2021/12/29 00:22:40;;;;;;;169.82;17.65;;;6.70;99.90;;;;;;5038294;28;20132;-86
2021/12/29 00:25:06;;;;;;;145.48;16.83;;;6.70;99.90;;;;;;5037629;28;20450;-86
2021/12/29 00:27:32;;;;;;;156.02;15.73;;;6.70;99.90;;;;;;5037112;28;20042;-79
2021/12/29 00:29:58;;;;;;;109.13;13.98;;;6.70;99.90;;;;;;5036941;28;20045;-79
2021/12/29 00:32:24;;;;;;;128.05;14.70;;;6.70;99.90;;;;;;5037483;28;20053;-79
2021/12/29 00:34:49;;;;;;;110.63;14.20;;;6.60;99.90;;;;;;5035601;28;20061;-79
2021/12/29 00:37:15;;;;;;;124.95;15.50;;;6.60;99.90;;;;;;5037593;28;20037;-80
2021/12/29 00:39:40;;;;;;;127.32;14.63;;;6.60;99.90;;;;;;5035300;28;20049;-87
2021/12/29 00:42:06;;;;;;;109.13;14.77;;;6.60;99.90;;;;;;5037617;28;20111;-86
2021/12/29 00:44:33;;;;;;;84.75;12.35;;;6.60;99.90;;;;;;5037382;28;20496;-79
2021/12/29 00:46:59;;;;;;;84.95;12.10;;;6.60;99.90;;;;;;5037637;28;20064;-79
2021/12/29 00:49:32;;;;;;;86.72;12.75;;;6.60;99.90;;;;;;5036817;28;20045;-79
2021/12/29 00:51:58;;;;;;;72.80;10.75;;;6.70;99.90;;;;;;5035688;28;20049;-79
2021/12/29 00:54:24;;;;;;;74.50;11.00;;;6.60;99.90;;;;;;5037029;28;20073;-79
2021/12/29 00:56:49;;;;;;;70.28;10.32;;;6.60;99.90;;;;;;5035058;28;20048;-79
2021/12/29 00:59:15;;;;;;;89.50;10.63;;;6.70;99.90;;;;;;5036130;28;20102;-86
2021/12/29 01:01:41;;;;;;;71.25;9.07;;;6.60;99.90;;;;;;5035463;28;20052;-86
2021/12/29 01:04:06;;;;;;;80.25;11.43;;;6.70;99.90;;;;;;5035385;28;20077;-79
2021/12/29 01:06:32;;;;;;;86.30;10.68;;;6.70;99.90;;;;;;5034823;28;20041;-86
2021/12/29 01:08:58;;;;;;;108.55;12.73;;;6.60;99.90;;;;;;5035356;28;20057;-79
2021/12/29 01:11:24;;;;;;;95.50;11.10;;;6.70;99.90;;;;;;5035056;28;20116;-79
2021/12/29 01:13:50;;;;;;;105.93;13.10;;;6.70;99.90;;;;;;5018579;28;20132;-79
2021/12/29 01:19:21;;;;;;;69.10;11.55;;;6.70;99.90;;;;;;5034648;28;20077;-79
2021/12/29 01:21:50;;;;;;;100.82;13.93;;;7.00;99.90;;;;;;5035925;28;20064;-79
2021/12/29 01:24:17;;;;;;;82.00;12.32;;;6.80;99.90;;;;;;5035863;28;20060;-79
2021/12/29 01:26:43;;;;;;;82.53;13.50;;;6.80;99.90;;;;;;5035502;28;20128;-84
2021/12/29 01:29:11;;;;;;;86.25;13.60;;;6.80;99.90;;;;;;5036786;28;20121;-85
2021/12/29 01:31:36;;;;;;;83.93;13.25;;;6.80;99.90;;;;;;5035938;28;20115;-79
2021/12/29 01:34:05;;;;;;;73.63;13.80;;;6.90;99.90;;;;;;5035846;28;20634;-79
2021/12/29 01:36:32;;;;;;;89.40;13.75;;;7.30;99.90;;;;;;5035724;28;20098;-86
2021/12/29 01:38:58;;;;;;;87.53;14.05;;;7.00;99.90;;;;;;5033748;28;20045;-80
2021/12/29 01:41:24;;;;;;;85.03;15.50;;;7.00;99.90;;;;;;5035830;28;20034;-79
2021/12/29 01:43:50;;;;;;;77.30;14.88;;;7.00;99.90;;;;;;5034906;28;20443;-86
2021/12/29 01:46:16;;;;;;;98.90;16.65;;;7.30;99.90;;;;;;5035583;28;20033;-79
2021/12/29 01:48:42;;;;;;;85.50;16.15;;;7.10;99.90;;;;;;5035703;28;20045;-86
2021/12/29 01:51:07;;;;;;;83.55;15.65;;;7.10;99.90;;;;;;5034598;28;20049;-79
2021/12/29 01:53:34;;;;;;;72.43;15.85;;;7.10;99.90;;;;;;5035896;28;20053;-83
2021/12/29 01:56:00;;;;;;;78.90;16.92;;;7.30;99.90;;;;;;5036472;28;20627;-79
2021/12/29 01:58:27;;;;;;;81.43;17.27;;;7.10;99.90;;;;;;5036325;28;20083;-79
2021/12/29 02:00:54;;;;;;;88.68;18.85;;;7.20;99.90;;;;;;5036094;28;20046;-79
2021/12/29 02:03:20;;;;;;;105.65;19.70;;;7.20;99.90;;;;;;5036130;28;20056;-79
2021/12/29 02:05:47;;;;;;;93.53;20.10;;;7.20;99.90;;;;;;5033981;28;20046;-79
2021/12/29 02:08:12;;;;;;;87.78;19.00;;;7.20;99.90;;;;;;5036143;28;20045;-80
2021/12/29 02:10:46;;;;;;;80.93;18.35;;;7.20;99.90;;;;;;5035163;28;20041;-79
2021/12/29 02:13:13;;;;;;;73.60;18.63;;;7.30;99.90;;;;;;5036257;28;20448;-79
2021/12/29 02:15:39;;;;;;;78.85;18.73;;;7.20;99.90;;;;;;5035945;28;20064;-85
2021/12/29 02:18:13;;;;;;;67.60;17.95;;;7.20;99.90;;;;;;5034590;28;20038;-86
2021/12/29 02:20:46;;;;;;;80.95;19.55;;;7.20;99.90;;;;;;5036320;28;20050;-83
2021/12/29 02:23:44;;;;;;;76.85;19.10;;;7.20;99.90;;;;;;5034853;28;20107;-79
2021/12/29 02:26:10;;;;;;;84.85;19.00;;;7.30;99.90;;;;;;5036488;28;20052;-79
2021/12/29 02:28:40;;;;;;;73.55;18.15;;;7.20;99.90;;;;;;5035571;28;20042;-79
2021/12/29 02:31:06;;;;;;;85.03;19.50;;;7.20;99.90;;;;;;5035266;28;20092;-86
2021/12/29 02:33:34;;;;;;;59.22;16.98;;;7.20;99.90;;;;;;5035561;28;20120;-80
2021/12/29 02:36:00;;;;;;;54.65;16.60;;;7.20;99.90;;;;;;5034614;28;20435;-79
2021/12/29 02:38:30;;;;;;;55.42;16.92;;;7.80;99.90;;;;;;5034281;28;20080;-79
2021/12/29 02:41:03;;;;;;;56.15;17.58;;;7.20;99.90;;;;;;5033819;28;20067;-79
2021/12/29 02:43:32;;;;;;;58.25;16.60;;;7.20;99.90;;;;;;5033789;28;20073;-80
2021/12/29 02:46:00;;;;;;;53.67;16.13;;;7.20;99.90;;;;;;5035120;28;20060;-79
2021/12/29 02:48:34;;;;;;;55.63;15.57;;;7.20;99.90;;;;;;5037249;28;20037;-79
2021/12/29 02:51:01;;;;;;;59.90;16.13;;;7.20;99.90;;;;;;5036206;28;20042;-79
2021/12/29 02:53:27;;;;;;;55.17;15.57;;;7.20;99.90;;;;;;5035286;28;20396;-79
2021/12/29 02:55:54;;;;;;;49.53;14.70;;;7.20;99.90;;;;;;5035341;28;20061;-79
2021/12/29 02:58:21;;;;;;;57.00;14.10;;;7.20;99.90;;;;;;5035630;28;20053;-86
2021/12/29 03:00:47;;;;;;;53.92;14.38;;;7.40;99.90;;;;;;5035739;28;20048;-79
2021/12/29 03:03:19;;;;;;;56.22;15.50;;;7.20;99.90;;;;;;5035925;28;20049;-79
2021/12/29 03:05:45;;;;;;;52.13;14.13;;;7.40;99.90;;;;;;5039065;28;20045;-80
2021/12/29 03:08:13;;;;;;;55.60;15.45;;;7.20;99.90;;;;;;5041995;28;20559;-86
2021/12/29 03:10:39;;;;;;;53.45;14.77;;;7.30;99.90;;;;;;5038237;28;20057;-84
2021/12/29 03:13:05;;;;;;;58.05;16.02;;;7.40;99.90;;;;;;5039876;28;20045;-85
2021/12/29 03:15:30;;;;;;;66.80;16.63;;;7.30;99.90;;;;;;5038961;28;20128;-86
2021/12/29 03:17:56;;;;;;;59.88;16.35;;;7.60;99.90;;;;;;5039313;28;20053;-79
2021/12/29 03:20:22;;;;;;;62.47;17.48;;;7.30;99.90;;;;;;5040004;28;20048;-79
2021/12/29 03:22:47;;;;;;;68.93;17.95;;;7.20;99.90;;;;;;5038809;28;20057;-80
2021/12/29 03:25:13;;;;;;;58.25;15.88;;;7.20;99.90;;;;;;5038278;28;20049;-80
2021/12/29 03:27:39;;;;;;;67.72;17.70;;;7.20;99.90;;;;;;5039909;28;20399;-84
2021/12/29 03:30:05;;;;;;;71.03;18.77;;;7.40;99.90;;;;;;5039422;28;20056;-83
2021/12/29 03:32:40;;;;;;;70.40;17.83;;;7.20;99.90;;;;;;5039971;28;20109;-85
2021/12/29 03:35:06;;;;;;;63.95;17.92;;;7.20;99.90;;;;;;5039385;28;20514;-83
2021/12/29 03:37:31;;;;;;;63.70;18.35;;;7.20;99.90;;;;;;5037539;28;20038;-86
2021/12/29 03:39:57;;;;;;;59.97;18.00;;;7.20;99.90;;;;;;5038854;28;20484;-79
2021/12/29 03:42:22;;;;;;;59.20;17.55;;;7.10;99.90;;;;;;5038567;28;20046;-79
2021/12/29 03:44:48;;;;;;;59.53;17.67;;;7.10;99.90;;;;;;5039244;28;20045;-79
2021/12/29 03:47:14;;;;;;;71.43;18.63;;;7.10;99.90;;;;;;5039058;28;20120;-79
2021/12/29 03:49:39;;;;;;;66.35;18.48;;;7.60;99.90;;;;;;5037626;28;20042;-86
2021/12/29 03:52:05;;;;;;;62.42;17.75;;;7.10;99.90;;;;;;5039328;28;20115;-86
2021/12/29 03:54:32;;;;;;;71.93;18.48;;;7.20;99.90;;;;;;5038195;28;20476;-86
2021/12/29 03:57:02;;;;;;;63.75;18.02;;;7.20;99.90;;;;;;5038263;28;20120;-79
2021/12/29 03:59:28;;;;;;;76.03;19.52;;;7.20;99.90;;;;;;5038248;28;20499;-79
2021/12/29 04:01:55;;;;;;;65.65;19.00;;;7.20;99.90;;;;;;5037932;28;20064;-79
2021/12/29 04:04:21;;;;;;;74.70;20.00;;;7.20;99.90;;;;;;5037721;28;20049;-79
2021/12/29 04:06:47;;;;;;;72.63;19.73;;;7.20;99.90;;;;;;5037878;28;20484;-80
2021/12/29 04:09:13;;;;;;;81.65;20.13;;;7.20;99.90;;;;;;5038560;28;20129;-86
2021/12/29 04:11:39;;;;;;;79.03;21.00;;;7.20;99.90;;;;;;5039357;28;20076;-86
2021/12/29 04:14:04;;;;;;;78.25;20.23;;;7.20;99.90;;;;;;5038329;28;20042;-79
2021/12/29 04:16:30;;;;;;;65.65;19.88;;;7.20;99.90;;;;;;5037457;28;20055;-86
2021/12/29 04:19:14;;;;;;;73.88;19.65;;;7.40;99.90;;;;;;5037820;28;20056;-79
2021/12/29 04:21:43;;;;;;;71.60;20.77;;;7.20;99.90;;;;;;5038023;28;20049;-86
2021/12/29 04:24:09;;;;;;;75.15;20.55;;;7.20;99.90;;;;;;5003772;28;20052;-80
2021/12/29 04:26:38;;;;;;;83.65;21.30;;;7.10;99.90;;;;;;5038284;28;20037;-79
2021/12/29 04:29:05;;;;;;;87.38;21.92;;;7.20;99.90;;;;;;5036822;28;20052;-79
2021/12/29 04:31:31;;;;;;;91.30;21.73;;;7.20;99.90;;;;;;5037979;28;20180;-86
2021/12/29 04:33:57;;;;;;;61.92;19.02;;;7.20;99.90;;;;;;5037617;28;20456;-79
2021/12/29 04:36:25;;;;;;;69.63;19.48;;;7.20;99.90;;;;;;5037241;28;20488;-79
2021/12/29 04:38:53;;;;;;;79.95;20.33;;;7.10;99.90;;;;;;5036709;28;20045;-79
2021/12/29 04:41:19;;;;;;;83.95;22.08;;;7.10;99.90;;;;;;5037724;28;20448;-79
2021/12/29 04:43:45;;;;;;;99.78;22.55;;;7.10;99.90;;;;;;5037894;28;20179;-80
2021/12/29 04:46:14;;;;;;;71.57;19.67;;;7.10;99.90;;;;;;5037350;28;20491;-86
2021/12/29 04:48:46;;;;;;;68.93;18.58;;;7.10;99.90;;;;;;5036440;28;20043;-86
2021/12/29 04:51:15;;;;;;;70.03;19.05;;;7.10;99.90;;;;;;5036250;28;20102;-86
2021/12/29 04:53:42;;;;;;;76.50;20.05;;;7.20;99.90;;;;;;5037373;28;20075;-86
2021/12/29 04:56:08;;;;;;;83.20;18.95;;;7.10;99.90;;;;;;5036997;28;20442;-86
2021/12/29 04:58:33;;;;;;;70.10;17.92;;;7.10;99.90;;;;;;5037184;28;20148;-79
2021/12/29 05:00:59;;;;;;;66.90;17.83;;;7.10;99.90;;;;;;5037768;28;20492;-79
2021/12/29 05:03:25;;;;;;;81.72;18.00;;;7.10;99.90;;;;;;5037134;28;20037;-79
2021/12/29 05:05:56;;;;;;;64.53;16.90;;;7.10;99.90;;;;;;5035616;28;20054;-79
2021/12/29 05:08:26;;;;;;;57.28;16.13;;;7.10;99.90;;;;;;5035466;28;20052;-79
2021/12/29 05:11:03;;;;;;;64.55;16.45;;;7.10;99.90;;;;;;5036957;28;20442;-79
2021/12/29 05:13:31;;;;;;;65.57;16.90;;;7.10;99.90;;;;;;5019337;28;20471;-79
2021/12/29 05:15:58;;;;;;;66.60;16.27;;;7.20;99.90;;;;;;5035665;28;20045;-79
2021/12/29 05:18:26;;;;;;;69.90;16.10;;;7.20;99.90;;;;;;5037004;28;20053;-79
2021/12/29 05:20:52;;;;;;;63.03;14.65;;;7.10;99.90;;;;;;5018195;28;20042;-79
2021/12/29 05:23:18;;;;;;;59.47;14.90;;;7.30;99.90;;;;;;5036909;28;20448;-79
2021/12/29 05:25:44;;;;;;;59.03;15.07;;;7.10;99.90;;;;;;5035771;28;20045;-80
2021/12/29 05:28:10;;;;;;;60.88;14.77;;;7.10;99.90;;;;;;5036035;28;20419;-86
2021/12/29 05:30:36;;;;;;;64.97;16.63;;;7.10;99.90;;;;;;5034891;28;20451;-80
2021/12/29 05:33:02;;;;;;;51.85;14.93;;;7.10;99.90;;;;;;5035138;28;20064;-79
2021/12/29 05:35:28;;;;;;;67.80;16.92;;;7.20;99.90;;;;;;5035323;28;20187;-79
2021/12/29 05:37:55;;;;;;;63.10;16.30;;;7.20;99.90;;;;;;5035671;28;20049;-79
2021/12/29 05:40:21;;;;;;;61.33;15.52;;;7.20;99.90;;;;;;5036413;28;20041;-79
2021/12/29 05:42:47;;;;;;;76.47;16.85;;;7.20;99.90;;;;;;5036708;28;20056;-85
2021/12/29 05:45:14;;;;;;;70.20;16.65;;;7.20;99.90;;;;;;5036886;28;20060;-84
2021/12/29 05:47:41;;;;;;;66.80;16.90;;;7.20;99.90;;;;;;5036639;28;20053;-87
2021/12/29 05:50:11;;;;;;;60.13;16.20;;;7.20;99.90;;;;;;5036850;28;20053;-86
2021/12/29 05:52:37;;;;;;;68.43;16.20;;;7.20;99.90;;;;;;5035246;28;20080;-80
2021/12/29 05:55:04;;;;;;;71.35;17.02;;;7.30;99.90;;;;;;5036503;28;20053;-79
2021/12/29 05:57:30;;;;;;;55.30;15.25;;;7.20;99.90;;;;;;5018675;28;20171;-86
2021/12/29 05:59:56;;;;;;;61.15;15.65;;;7.20;99.90;;;;;;5037176;28;20049;-79
2021/12/29 06:02:22;;;;;;;61.97;15.15;;;7.20;99.90;;;;;;5036813;28;20045;-80
2021/12/29 06:04:48;;;;;;;71.15;16.10;;;7.30;99.90;;;;;;5037083;28;20068;-79
2021/12/29 06:07:13;;;;;;;56.92;15.38;;;7.10;99.90;;;;;;5036949;28;20045;-81
2021/12/29 06:09:40;;;;;;;57.17;14.75;;;7.10;99.90;;;;;;5036504;28;20049;-85
2021/12/29 06:12:06;;;;;;;57.38;14.57;;;7.10;99.90;;;;;;5036602;28;20038;-86
2021/12/29 06:14:31;;;;;;;62.78;14.02;;;7.10;99.90;;;;;;5035398;28;20060;-79
2021/12/29 06:16:57;;;;;;;47.67;12.50;;;7.10;99.90;;;;;;5035865;28;20045;-79
2021/12/29 06:19:23;;;;;;;54.88;13.30;;;7.10;99.90;;;;;;5036989;28;20110;-79
2021/12/29 06:21:48;;;;;;;52.33;13.35;;;7.10;99.90;;;;;;5036857;28;20080;-86
2021/12/29 06:24:14;;;;;;;46.97;12.38;;;7.10;99.90;;;;;;5037140;28;20053;-80
2021/12/29 06:26:40;;;;;;;57.95;13.88;;;7.10;99.90;;;;;;5036876;28;20079;-87
2021/12/29 06:29:05;;;;;;;58.30;14.15;;;7.10;99.90;;;;;;5035572;28;20357;-79
2021/12/29 06:31:32;;;;;;;55.92;12.85;;;7.00;99.90;;;;;;5036886;28;20077;-86
2021/12/29 06:33:59;;;;;;;46.92;12.68;;;7.20;99.90;;;;;;5034752;28;20049;-79
2021/12/29 06:36:25;;;;;;;56.58;13.73;;;7.10;99.90;;;;;;5037092;28;20475;-79
2021/12/29 06:38:51;;;;;;;50.47;12.43;;;7.30;99.90;;;;;;5036498;28;20046;-79
2021/12/29 06:41:17;;;;;;;66.63;13.60;;;7.10;99.90;;;;;;5040580;28;20099;-86
2021/12/29 06:43:42;;;;;;;49.88;12.27;;;7.10;99.90;;;;;;5039007;28;20053;-80
2021/12/29 06:46:08;;;;;;;50.30;12.05;;;7.10;99.90;;;;;;5040146;28;20426;-86
2021/12/29 06:48:34;;;;;;;54.80;13.43;;;7.10;99.90;;;;;;5040998;28;20072;-81
2021/12/29 06:50:59;;;;;;;54.70;12.63;;;7.10;99.90;;;;;;5041612;28;20492;-79
2021/12/29 06:53:28;;;;;;;63.88;12.75;;;7.10;99.90;;;;;;5040765;28;20380;-80
2021/12/29 06:55:54;;;;;;;55.03;11.73;;;7.10;99.90;;;;;;5039172;28;20075;-79
2021/12/29 06:58:19;;;;;;;57.90;11.65;;;7.20;99.90;;;;;;5040424;28;20042;-79
2021/12/29 07:00:45;;;;;;;57.15;12.07;;;7.60;99.90;;;;;;5039911;28;20042;-79
2021/12/29 07:03:10;;;;;;;57.25;11.68;;;7.20;99.90;;;;;;5040200;28;20041;-86
2021/12/29 07:05:36;;;;;;;55.17;10.98;;;7.20;99.90;;;;;;5039901;28;20361;-79
2021/12/29 07:08:02;;;;;;;40.78;9.82;;;7.30;99.90;;;;;;5039238;28;20554;-79
2021/12/29 07:10:27;;;;;;;55.47;10.75;;;7.30;99.90;;;;;;5043194;28;20447;-79
2021/12/29 07:12:53;;;;;;;50.78;10.85;;;7.30;99.90;;;;;;5040071;28;20045;-79
2021/12/29 07:15:18;;;;;;;47.95;10.48;;;7.30;99.90;;;;;;5039395;28;20045;-79
2021/12/29 07:17:44;;;;;;;49.72;10.02;;;7.30;99.90;;;;;;5037762;28;20507;-79
2021/12/29 07:20:10;;;;;;;53.17;10.02;;;7.30;99.90;;;;;;5038915;28;20100;-87
2021/12/29 07:22:36;;;;;;;57.88;10.82;;;7.30;99.90;;;;;;5039077;28;20120;-79
2021/12/29 07:25:03;;;;;;;68.05;11.38;;;7.30;99.90;;;;;;5038934;28;20111;-79
2021/12/29 07:27:28;;;;;;;50.63;11.20;;;7.20;99.90;;;;;;5039119;28;20095;-79
2021/12/29 07:29:54;;;;;;;51.47;9.85;;;7.30;99.90;;;;;;5038575;28;20430;-79
2021/12/29 07:32:20;;;;;;;54.28;10.20;;;7.20;99.90;;;;;;5039453;28;20049;-79
2021/12/29 07:34:45;;;;;;;58.88;10.90;;;7.20;99.90;;;;;;5038067;28;20518;-79
2021/12/29 07:37:12;;;;;;;49.92;10.90;;;7.20;99.90;;;;;;5038402;28;20112;-79
2021/12/29 07:39:38;;;;;;;60.03;11.60;;;7.20;99.90;;;;;;5037520;28;20041;-79
2021/12/29 07:42:05;;;;;;;66.78;11.95;;;7.20;99.90;;;;;;5039314;28;20090;-79
2021/12/29 07:44:31;;;;;;;85.30;13.32;;;7.20;99.90;;;;;;5038494;28;20100;-79
2021/12/29 07:46:58;;;;;;;77.60;12.77;;;7.30;99.90;;;;;;5037953;28;20124;-79
2021/12/29 07:49:26;;;;;;;105.65;15.75;;;7.20;99.90;;;;;;5036881;28;20124;-79
2021/12/29 07:51:52;;;;;;;105.97;16.45;;;7.20;99.90;;;;;;5038302;28;20052;-87
2021/12/29 07:54:18;;;;;;;78.63;14.05;;;7.20;99.90;;;;;;5037310;28;20476;-86
2021/12/29 07:56:44;;;;;;;104.53;14.48;;;7.40;99.90;;;;;;5038190;28;20129;-79
2021/12/29 07:59:11;;;;;;;113.22;15.55;;;7.10;99.90;;;;;;5037809;28;20050;-79
2021/12/29 08:01:38;;;;;;;88.18;15.38;;;7.10;99.90;;;;;;5038524;28;20037;-79
2021/12/29 08:04:03;;;;;;;97.03;16.42;;;7.50;99.90;;;;;;5038165;28;20071;-79
2021/12/29 08:06:29;;;;;;;88.30;17.45;;;7.10;99.90;;;;;;5037665;28;20045;-79
2021/12/29 08:08:55;;;;;;;65.32;13.20;;;7.40;99.90;;;;;;5037121;28;20037;-79
2021/12/29 08:11:21;;;;;;;54.03;11.90;;;7.10;99.90;;;;;;5037777;28;20042;-79
2021/12/29 08:13:47;;;;;;;61.17;13.15;;;7.10;99.90;;;;;;5038094;28;20043;-79
2021/12/29 08:16:13;;;;;;;63.33;12.50;;;7.10;99.90;;;;;;5038642;28;20316;-79
2021/12/29 08:18:39;;;;;;;72.65;13.20;;;7.10;99.90;;;;;;5038227;28;20069;-79
2021/12/29 08:21:05;;;;;;;66.97;13.27;;;7.10;99.90;;;;;;5038262;28;20049;-79
2021/12/29 08:23:31;;;;;;;47.63;12.30;;;7.20;99.90;;;;;;5037941;28;20519;-79
2021/12/29 08:25:58;;;;;;;70.40;13.90;;;7.10;99.90;;;;;;5037902;28;20056;-79
2021/12/29 08:28:23;;;;;;;54.20;12.25;;;7.20;99.90;;;;;;5038409;28;20045;-79
2021/12/29 08:30:50;;;;;;;55.28;12.30;;;7.20;99.90;;;;;;5038193;28;20515;-79
2021/12/29 08:33:16;;;;;;;57.05;12.45;;;7.20;99.90;;;;;;5038356;28;20050;-86
2021/12/29 08:35:42;;;;;;;59.08;13.43;;;7.20;99.90;;;;;;5036588;28;20046;-79
2021/12/29 08:38:07;;;;;;;60.90;13.80;;;7.20;99.90;;;;;;5037382;28;20038;-79
2021/12/29 08:40:33;;;;;;;62.63;15.18;;;7.20;99.90;;;;;;5037076;28;20045;-79
2021/12/29 08:43:01;;;;;;;57.15;14.18;;;7.20;99.90;;;;;;5037924;28;20041;-79
2021/12/29 08:45:28;;;;;;;62.85;14.40;;;7.20;99.90;;;;;;5038201;28;20046;-79
2021/12/29 08:47:57;;;;;;;76.40;15.82;;;7.30;99.90;;;;;;5036948;28;20052;-79
2021/12/29 08:50:25;;;;;;;59.42;15.05;;;7.20;99.90;;;;;;5037292;28;20099;-79
2021/12/29 08:52:51;;;;;;;61.33;14.65;;;7.20;99.90;;;;;;5038601;28;20073;-79
2021/12/29 08:55:17;;;;;;;55.08;14.30;;;7.30;99.90;;;;;;5037881;28;20045;-79
2021/12/29 08:57:43;;;;;;;48.70;12.63;;;7.20;99.90;;;;;;5038009;28;20042;-82
2021/12/29 09:00:12;;;;;;;50.72;13.52;;;7.30;99.90;;;;;;5036067;28;20129;-79
2021/12/29 09:02:39;;;;;;;56.20;14.35;;;7.30;99.90;;;;;;5036976;28;20045;-79
2021/12/29 09:05:06;;;;;;;37.85;10.65;;;7.30;99.90;;;;;;5038020;28;20511;-80
2021/12/29 09:07:31;;;;;;;41.13;11.55;;;7.30;99.90;;;;;;5038096;28;20030;-79
2021/12/29 09:09:57;;;;;;;41.80;14.23;;;7.30;99.90;;;;;;5037840;28;20052;-79
2021/12/29 09:12:23;;;;;;;42.88;13.02;;;7.30;99.90;;;;;;5036767;28;20038;-79
2021/12/29 09:14:49;;;;;;;41.90;13.00;;;7.30;99.90;;;;;;5037626;28;20396;-79
2021/12/29 09:17:15;;;;;;;40.78;11.13;;;7.30;99.90;;;;;;5038500;28;20120;-79
2021/12/29 09:19:42;;;;;;;35.47;9.88;;;7.20;99.90;;;;;;5038640;28;20045;-79
2021/12/29 09:22:11;;;;;;;28.83;8.85;;;7.20;99.90;;;;;;5035250;28;20121;-79
2021/12/29 09:24:36;;;;;;;25.20;7.53;;;7.30;99.90;;;;;;5037515;28;20041;-79
2021/12/29 09:27:02;;;;;;;24.45;7.88;;;7.20;99.90;;;;;;5037323;28;20060;-79
2021/12/29 09:29:32;;;;;;;23.83;7.90;;;7.20;99.90;;;;;;5036829;28;20056;-79
2021/12/29 09:31:58;;;;;;;24.83;7.40;;;7.20;99.90;;;;;;5037866;28;20064;-79
2021/12/29 09:34:24;;;;;;;49.33;21.40;;;7.20;99.90;;;;;;5038484;28;20037;-79
2021/12/29 09:36:49;;;;;;;40.65;14.32;;;7.20;99.90;;;;;;5038522;28;20044;-79
2021/12/29 09:39:15;;;;;;;37.45;11.23;;;7.20;99.90;;;;;;5036554;28;20419;-79
2021/12/29 09:41:41;;;;;;;25.65;8.55;;;7.20;99.90;;;;;;5037628;28;20395;-79
2021/12/29 09:44:09;;;;;;;24.58;8.52;;;7.20;99.90;;;;;;5037303;28;20037;-79
2021/12/29 09:46:36;;;;;;;25.95;7.00;;;7.50;99.90;;;;;;5037979;28;20049;-85
2021/12/29 09:49:02;;;;;;;22.60;7.07;;;7.30;99.90;;;;;;5036920;28;20103;-79
2021/12/29 09:51:28;;;;;;;18.70;6.85;;;7.30;99.90;;;;;;5037120;28;20475;-79
2021/12/29 09:53:54;;;;;;;20.55;8.00;;;7.30;99.90;;;;;;5037122;28;20042;-79
2021/12/29 09:56:19;;;;;;;24.08;8.13;;;7.40;99.90;;;;;;5035856;28;20369;-79
2021/12/29 09:58:45;;;;;;;23.20;7.22;;;7.40;99.90;;;;;;5035530;28;20030;-79
2021/12/29 10:01:11;;;;;;;26.58;8.18;;;7.40;99.90;;;;;;5036802;28;20104;-79
2021/12/29 10:03:37;;;;;;;23.55;8.27;;;7.40;99.90;;;;;;5037325;28;20045;-80
2021/12/29 10:06:06;;;;;;;24.70;7.30;;;7.90;99.90;;;;;;5037131;28;20046;-79
2021/12/29 10:08:44;;;;;;;23.55;8.30;;;7.40;99.90;;;;;;5037332;28;20117;-79
2021/12/29 10:11:24;;;;;;;22.25;7.70;;;7.50;99.90;;;;;;5036598;28;20480;-79
2021/12/29 10:13:49;;;;;;;24.48;7.25;;;7.40;99.90;;;;;;5037554;28;20461;-79
2021/12/29 10:16:19;;;;;;;24.27;8.25;;;7.50;99.90;;;;;;5040939;28;20029;-79
2021/12/29 10:18:48;;;;;;;26.45;8.23;;;7.50;99.90;;;;;;5040783;28;20476;-79
2021/12/29 10:21:16;;;;;;;21.63;7.18;;;7.50;99.90;;;;;;5023423;28;20097;-79
2021/12/29 10:23:48;;;;;;;22.65;6.05;;;7.60;99.90;;;;;;5041159;28;20049;-79
2021/12/29 10:26:21;;;;;;;20.38;5.75;;;7.60;99.90;;;;;;5040266;28;20104;-79
2021/12/29 10:28:50;;;;;;;18.20;5.88;;;7.60;99.90;;;;;;5041243;28;20042;-79
2021/12/29 10:31:25;;;;;;;23.80;6.30;;;7.60;99.90;;;;;;5041243;28;20065;-79
2021/12/29 10:33:57;;;;;;;22.58;6.07;;;7.60;99.90;;;;;;5039267;28;20060;-79
2021/12/29 10:36:32;;;;;;;21.95;5.57;;;7.70;99.90;;;;;;5041545;28;20048;-79
2021/12/29 10:39:06;;;;;;;24.85;6.97;;;7.70;99.90;;;;;;5039750;28;20055;-79
2021/12/29 10:41:43;;;;;;;22.17;6.18;;;7.70;99.90;;;;;;5040944;28;20132;-79
2021/12/29 10:44:09;;;;;;;28.38;6.30;;;7.70;99.90;;;;;;5040515;28;20475;-79
2021/12/29 10:46:34;;;;;;;20.00;5.40;;;7.70;99.90;;;;;;5039865;28;20041;-79
2021/12/29 10:49:05;;;;;;;22.25;5.97;;;7.80;99.90;;;;;;5040004;28;20052;-79
2021/12/29 10:51:43;;;;;;;25.02;6.60;;;7.90;99.90;;;;;;5041542;28;20038;-79
2021/12/29 10:54:19;;;;;;;23.23;5.70;;;7.90;99.90;;;;;;5041152;28;20048;-79
2021/12/29 10:57:03;;;;;;;23.58;6.15;;;8.20;99.90;;;;;;5041185;28;20037;-79
2021/12/29 10:59:32;;;;;;;19.05;5.90;;;8.30;99.90;;;;;;5041376;28;20041;-79
2021/12/29 11:01:58;;;;;;;18.00;5.93;;;8.00;99.90;;;;;;5040696;28;20046;-79
2021/12/29 11:04:25;;;;;;;20.75;5.63;;;8.00;99.90;;;;;;5043612;28;20091;-80
2021/12/29 11:06:55;;;;;;;20.77;5.70;;;8.00;99.90;;;;;;5040435;28;20111;-79
2021/12/29 11:09:32;;;;;;;17.80;5.40;;;8.00;99.90;;;;;;5038823;28;20049;-79
2021/12/29 11:11:59;;;;;;;16.25;5.20;;;8.00;99.90;;;;;;5040552;28;20041;-79
2021/12/29 11:14:27;;;;;;;23.00;5.70;;;8.00;99.90;;;;;;5039664;28;20042;-79
2021/12/29 11:17:17;;;;;;;15.55;4.70;;;8.00;99.90;;;;;;5040310;28;20050;-87
2021/12/29 11:19:56;;;;;;;15.57;5.30;;;7.90;99.90;;;;;;5039923;28;20060;-87
2021/12/29 11:22:28;;;;;;;15.45;6.00;;;8.00;99.90;;;;;;5040087;28;20073;-80
2021/12/29 11:25:02;;;;;;;13.82;4.93;;;8.00;99.90;;;;;;5041407;28;20044;-79
2021/12/29 11:27:30;;;;;;;12.75;4.60;;;7.90;99.90;;;;;;5041979;28;20041;-79
2021/12/29 11:30:10;;;;;;;16.90;4.80;;;7.90;99.90;;;;;;5040726;28;20033;-79
2021/12/29 11:32:39;;;;;;;13.20;4.47;;;8.30;99.90;;;;;;5038424;28;20053;-79
2021/12/29 11:35:20;;;;;;;11.70;4.15;;;7.90;99.90;;;;;;5040329;28;20536;-79
2021/12/29 11:37:54;;;;;;;11.85;4.10;;;7.90;99.90;;;;;;5039735;28;20045;-79
2021/12/29 11:40:30;;;;;;;14.10;4.28;;;7.80;99.90;;;;;;5039080;28;20434;-79
2021/12/29 11:42:56;;;;;;;10.88;4.13;;;7.90;99.90;;;;;;5038904;28;20045;-80
2021/12/29 11:45:22;;;;;;;18.05;4.32;;;7.80;99.90;;;;;;5041012;28;20369;-79
2021/12/29 11:47:48;;;;;;;14.32;5.10;;;7.80;99.90;;;;;;5039850;28;20033;-79
2021/12/29 11:50:25;;;;;;;15.85;5.38;;;8.00;99.90;;;;;;5039750;28;20042;-80
2021/12/29 11:53:20;;;;;;;17.10;4.75;;;7.80;99.90;;;;;;5039911;28;20511;-87
2021/12/29 11:55:49;;;;;;;13.00;5.10;;;7.70;99.90;;;;;;5041193;28;20116;-79
2021/12/29 11:58:27;;;;;;;14.73;4.53;;;7.70;99.90;;;;;;5038445;28;20037;-79
2021/12/29 12:01:01;;;;;;;14.52;4.95;;;7.70;99.90;;;;;;5039288;28;20049;-79
2021/12/29 12:03:51;;;;;;;12.77;4.80;;;7.70;99.90;;;;;;5039229;28;20049;-79
2021/12/29 12:06:25;;;;;;;14.73;5.07;;;7.60;99.90;;;;;;5039085;28;20549;-79
2021/12/29 12:09:07;;;;;;;12.48;5.25;;;7.70;99.90;;;;;;5038215;28;20120;-79
2021/12/29 12:11:35;;;;;;;12.57;5.13;;;7.60;99.90;;;;;;5038854;28;20041;-79
2021/12/29 12:14:02;;;;;;;14.20;5.88;;;7.90;99.90;;;;;;5039173;28;20045;-79
2021/12/29 12:16:28;;;;;;;14.57;5.30;;;7.60;99.90;;;;;;5040194;28;20381;-79
2021/12/29 12:18:56;;;;;;;12.80;5.07;;;7.60;99.90;;;;;;5039830;28;20040;-79
2021/12/29 12:21:24;;;;;;;13.50;5.97;;;7.60;99.90;;;;;;5038333;28;20419;-79
2021/12/29 12:23:50;;;;;;;16.90;6.20;;;7.60;99.90;;;;;;5037490;28;20467;-80
2021/12/29 12:26:21;;;;;;;18.52;7.60;;;7.70;99.90;;;;;;5039462;28;20045;-79
2021/12/29 12:28:53;;;;;;;17.95;6.97;;;7.60;99.90;;;;;;5038574;28;20510;-79
2021/12/29 12:31:31;;;;;;;16.15;6.30;;;7.80;99.90;;;;;;5039166;28;20029;-79
2021/12/29 12:34:09;;;;;;;20.45;8.02;;;7.70;99.90;;;;;;5037850;28;20041;-79
2021/12/29 12:36:36;;;;;;;19.15;7.07;;;7.60;99.90;;;;;;5037622;28;20117;-79
2021/12/29 12:39:14;;;;;;;17.83;7.13;;;7.60;99.90;;;;;;5037834;28;20050;-87
2021/12/29 12:41:43;;;;;;;15.27;6.57;;;7.70;99.90;;;;;;5038985;28;20033;-79
2021/12/29 12:44:08;;;;;;;16.20;6.07;;;7.50;99.90;;;;;;5037415;28;20045;-79